Time;durP1;ratioP1;P1;durP2;ratioP2;P2;SDS_P1;SDS_P2;PMS_P1;PMS_P2;Temp;Humidity;BMP_temperature;BMP_pressure;BME280_temperature;BME280_humidity;BME280_pressure;Samples;Min_cycle;Max_cycle;Signal;HPM_P1;HPM_P2
2022/10/13 00:00:48;;;;;;;11.48;7.72;;;;;;;10.17;88.74;63049.75;4968009;29;20276;-77
2022/10/13 00:03:16;;;;;;;10.43;7.25;;;;;;;10.12;89.03;63044.59;4965912;29;20268;-78
2022/10/13 00:05:47;;;;;;;11.07;7.85;;;;;;;10.05;88.52;63034.25;4962724;29;20275;-80
2022/10/13 00:08:17;;;;;;;9.77;6.50;;;;;;;10.08;88.51;63040.44;4971970;28;20221;-78
2022/10/13 00:10:46;;;;;;;8.25;6.43;;;;;;;10.09;88.57;63036.41;4969703;29;20205;-79
2022/10/13 00:13:16;;;;;;;8.85;7.57;;;;;;;10.02;89.02;63034.22;4966105;29;20538;-77
2022/10/13 00:15:46;;;;;;;10.55;7.90;;;;;;;10.05;89.60;63029.69;4957423;29;20285;-77
2022/10/13 00:18:15;;;;;;;12.15;7.72;;;;;;;10.03;89.45;63037.28;4970599;29;20216;-78
2022/10/13 00:20:43;;;;;;;10.13;6.95;;;;;;;10.06;89.42;63035.31;4969873;29;20217;-80
2022/10/13 00:23:14;;;;;;;9.98;6.97;;;;;;;10.06;90.10;63035.31;4968825;29;20228;-79
2022/10/13 00:25:43;;;;;;;11.98;7.65;;;;;;;10.07;89.65;63038.88;4969000;29;20208;-81
2022/10/13 00:28:11;;;;;;;10.45;6.93;;;;;;;10.03;90.28;63035.25;4968648;28;20225;-78
2022/10/13 00:30:39;;;;;;;10.45;7.25;;;;;;;10.06;90.10;63035.31;4967369;29;20271;-79
2022/10/13 00:33:07;;;;;;;11.15;7.63;;;;;;;10.05;90.03;63031.72;4963067;29;20300;-77
2022/10/13 00:35:34;;;;;;;9.32;7.25;;;;;;;10.03;90.38;63029.66;4966592;29;20400;-77
2022/10/13 00:38:01;;;;;;;9.00;6.78;;;;;;;10.06;89.93;63032.75;4966779;28;20477;-77
2022/10/13 00:40:29;;;;;;;6.68;6.07;;;;;;;10.08;88.39;63042.44;4964235;29;20205;-77
2022/10/13 00:42:56;;;;;;;13.13;7.43;;;;;;;10.06;88.09;63035.31;4965431;29;20256;-77
2022/10/13 00:45:24;;;;;;;9.93;6.45;;;;;;;10.03;88.79;63032.72;4965949;29;20201;-78
2022/10/13 00:47:55;;;;;;;9.48;7.32;;;;;;;9.96;89.17;63025.47;4965783;29;20583;-77
2022/10/13 00:50:25;;;;;;;8.55;6.60;;;;;;;9.98;89.08;63027.53;4956723;29;20208;-77
2022/10/13 00:52:54;;;;;;;8.30;6.13;;;;;;;9.95;89.70;63024.44;4959699;29;20228;-77
2022/10/13 00:55:25;;;;;;;8.15;5.95;;;;;;;9.93;90.48;63024.91;4965247;29;20204;-77
2022/10/13 00:57:54;;;;;;;7.40;5.78;;;;;;;9.90;90.42;63021.81;4964887;29;20632;-77
2022/10/13 01:00:23;;;;;;;5.90;5.30;;;;;;;9.90;90.63;63016.19;4951045;29;20206;-78
2022/10/13 01:02:50;;;;;;;5.35;4.85;;;;;;;9.83;90.64;63011.50;4949610;29;20228;-77
2022/10/13 01:05:19;;;;;;;6.50;4.35;;;;;;;9.77;90.76;63010.91;4963280;29;20247;-77
2022/10/13 01:07:47;;;;;;;5.95;4.03;;;;;;;9.69;91.36;62997.53;4959786;29;20239;-78
2022/10/13 01:10:23;;;;;;;4.53;4.00;;;;;;;9.71;91.79;62999.09;4966527;29;20220;-78
2022/10/13 01:12:59;;;;;;;8.20;5.25;;;;;;;9.72;91.45;63005.72;4968315;28;20239;-77
2022/10/13 01:15:31;;;;;;;4.25;3.95;;;;;;;9.72;92.05;63002.66;4965977;29;20341;-76
2022/10/13 01:18:08;;;;;;;5.13;4.60;;;;;;;9.72;92.95;62997.59;4962379;28;20260;-79
2022/10/13 01:20:55;;;;;;;5.93;4.93;;;;;;;9.68;93.49;62996.00;4971289;29;20215;-80
2022/10/13 01:23:56;;;;;;;7.35;4.47;;;;;;;9.71;93.56;63006.72;4950299;29;20545;-78
2022/10/13 01:27:01;;;;;;;7.25;4.47;;;;;;;9.63;95.08;62998.47;4954131;29;20272;-78
2022/10/13 01:29:53;;;;;;;5.18;4.60;;;;;;;9.60;95.45;62985.16;4951517;29;20268;-80
2022/10/13 01:32:29;;;;;;;5.95;4.78;;;;;;;9.61;95.65;62988.75;4965028;29;20221;-79
2022/10/13 01:35:06;;;;;;;4.95;4.22;;;;;;;9.54;96.82;62981.53;4962802;29;20208;-78
2022/10/13 01:37:41;;;;;;;6.53;4.50;;;;;;;9.53;97.71;62983.00;4966099;28;20307;-77
2022/10/13 01:40:15;;;;;;;5.53;4.30;;;;;;;9.55;97.77;62980.53;4964972;29;20317;-77
2022/10/13 01:42:49;;;;;;;7.22;4.30;;;;;;;9.53;98.13;62981.00;4965036;28;20251;-77
2022/10/13 01:45:22;;;;;;;6.97;4.38;;;;;;;9.47;99.29;62977.34;4951722;29;20216;-78
2022/10/13 01:47:50;;;;;;;8.75;5.65;;;;;;;9.45;100.00;62975.28;4949856;29;20221;-76
2022/10/13 01:50:19;;;;;;;5.93;5.35;;;;;;;9.47;100.00;62974.81;4955621;29;20241;-77
2022/10/13 01:52:47;;;;;;;5.57;4.97;;;;;;;9.43;100.00;62975.75;4964568;29;20568;-77
2022/10/13 01:55:13;;;;;;;6.38;4.43;;;;;;;9.43;100.00;62970.66;4956707;29;20212;-77
2022/10/13 01:57:42;;;;;;;4.97;4.47;;;;;;;9.44;100.00;62974.22;4967492;29;20268;-78
2022/10/13 02:00:12;;;;;;;4.38;4.07;;;;;;;9.46;100.00;62976.28;4970304;29;20287;-76
2022/10/13 02:02:47;;;;;;;4.85;3.95;;;;;;;9.49;100.00;62976.84;4963837;28;20220;-76
2022/10/13 02:05:24;;;;;;;4.60;4.15;;;;;;;9.55;100.00;62987.63;4968818;29;20244;-77
2022/10/13 02:07:56;;;;;;;5.13;4.30;;;;;;;9.52;100.00;62982.50;4969889;29;20254;-76
2022/10/13 02:10:28;;;;;;;5.72;4.63;;;;;;;9.49;100.00;62976.84;4967178;29;20214;-76
2022/10/13 02:12:59;;;;;;;4.93;4.43;;;;;;;9.52;100.00;62979.97;4961608;29;20229;-77
2022/10/13 02:15:31;;;;;;;6.15;4.03;;;;;;;9.54;100.00;62984.59;4969848;29;20200;-76
2022/10/13 02:18:01;;;;;;;5.80;4.65;;;;;;;9.50;100.00;62977.91;4967826;29;20247;-77
2022/10/13 02:20:28;;;;;;;5.57;4.75;;;;;;;9.49;100.00;62976.84;4958529;29;20217;-77
2022/10/13 02:23:01;;;;;;;6.35;5.10;;;;;;;9.54;100.00;62982.03;4955038;29;20243;-77
2022/10/13 02:25:28;;;;;;;7.32;5.43;;;;;;;9.49;100.00;62979.41;4968609;29;20209;-77
2022/10/13 02:27:58;;;;;;;9.73;5.88;;;;;;;9.47;100.00;62969.19;4968474;29;20414;-76
2022/10/13 02:30:27;;;;;;;7.90;5.43;;;;;;;9.46;100.00;62973.75;4952043;29;20229;-76
2022/10/13 02:32:54;;;;;;;6.82;5.25;;;;;;;9.39;100.00;62968.56;4962646;29;20224;-76
2022/10/13 02:35:22;;;;;;;6.75;5.97;;;;;;;9.45;100.00;62970.19;4968379;29;20494;-77
2022/10/13 02:37:49;;;;;;;9.80;7.20;;;;;;;9.43;100.00;62970.66;4962688;29;20245;-76
2022/10/13 02:40:16;;;;;;;12.77;9.40;;;;;;;9.42;100.00;62972.19;4962983;29;20497;-77
2022/10/13 02:42:47;;;;;;;8.93;7.78;;;;;;;9.41;100.00;62971.13;4963618;28;20635;-80
2022/10/13 02:45:15;;;;;;;13.65;9.80;;;;;;;9.41;100.00;62968.06;4972730;29;20211;-80
2022/10/13 02:47:45;;;;;;;13.25;10.40;;;;;;;9.39;100.00;62969.06;4970212;28;20224;-79
2022/10/13 02:50:13;;;;;;;15.23;8.93;;;;;;;9.40;100.00;62969.59;4974636;29;20264;-77
2022/10/13 02:52:41;;;;;;;11.63;8.85;;;;;;;9.36;100.00;62963.41;4972216;28;20212;-78
2022/10/13 02:55:11;;;;;;;13.05;9.00;;;;;;;9.35;100.00;62967.97;4971110;28;20211;-77
2022/10/13 02:57:41;;;;;;;13.32;7.90;;;;;;;9.37;100.00;62961.91;4964843;28;20251;-78
2022/10/13 03:00:10;;;;;;;12.30;9.10;;;;;;;9.30;100.00;62957.22;4972156;29;20239;-79
2022/10/13 03:02:37;;;;;;;14.00;7.93;;;;;;;9.25;100.00;62952.03;4971146;29;20252;-78
2022/10/13 03:05:05;;;;;;;13.23;8.45;;;;;;;9.21;100.00;62953.50;4970205;29;20197;-79
2022/10/13 03:07:33;;;;;;;12.75;8.27;;;;;;;9.21;100.00;62950.97;4970440;28;20244;-79
2022/10/13 03:10:01;;;;;;;13.95;7.80;;;;;;;9.17;100.00;62949.38;4969701;29;20201;-79
2022/10/13 03:12:28;;;;;;;15.15;7.63;;;;;;;9.16;100.00;62942.75;4960065;28;20259;-76
2022/10/13 03:14:55;;;;;;;10.82;8.13;;;;;;;9.09;100.00;62941.09;4965891;29;20277;-76
2022/10/13 03:17:22;;;;;;;9.10;7.72;;;;;;;9.11;100.00;62937.59;4965950;28;20977;-77
2022/10/13 03:19:48;;;;;;;13.90;8.73;;;;;;;9.08;100.00;62940.06;4966776;29;20255;-77
2022/10/13 03:22:15;;;;;;;11.50;8.50;;;;;;;9.10;100.00;62937.06;4968192;29;20228;-77
2022/10/13 03:24:42;;;;;;;16.48;11.20;;;;;;;9.10;100.00;62937.06;4965360;29;20205;-77
2022/10/13 03:27:11;;;;;;;16.52;11.05;;;;;;;9.07;100.00;62933.44;4965848;29;20224;-77
2022/10/13 03:29:38;;;;;;;12.88;10.02;;;;;;;9.07;100.00;62933.44;4966212;29;20197;-77
2022/10/13 03:32:05;;;;;;;20.83;12.15;;;;;;;9.03;100.00;62934.91;4968067;29;20272;-78
2022/10/13 03:34:32;;;;;;;14.68;9.95;;;;;;;9.02;100.00;62933.34;4964486;29;20212;-77
2022/10/13 03:36:59;;;;;;;18.67;11.95;;;;;;;9.02;100.00;62928.81;4968397;28;20240;-77
2022/10/13 03:39:26;;;;;;;18.67;11.60;;;;;;;8.99;100.00;62928.22;4949811;29;20245;-77
2022/10/13 03:41:53;;;;;;;24.33;13.88;;;;;;;8.99;100.00;62923.16;4962637;28;20197;-77
2022/10/13 03:44:21;;;;;;;24.25;12.65;;;;;;;8.99;100.00;62925.69;4963933;29;20240;-77
2022/10/13 03:46:48;;;;;;;25.95;13.30;;;;;;;8.99;100.00;62925.19;4965775;28;20205;-77
2022/10/13 03:49:16;;;;;;;25.92;13.38;;;;;;;9.00;100.00;62926.22;4967549;29;20208;-77
2022/10/13 03:51:43;;;;;;;22.60;14.80;;;;;;;8.93;100.00;62919.50;4965536;28;20251;-79
2022/10/13 03:54:11;;;;;;;33.70;17.17;;;;;;;8.97;100.00;62923.63;4966226;29;20201;-77
2022/10/13 03:56:39;;;;;;;28.52;17.55;;;;;;;8.98;100.00;62924.13;4965269;29;20291;-77
2022/10/13 03:59:07;;;;;;;21.13;12.95;;;;;;;8.92;100.00;62915.91;4967255;29;20484;-77
2022/10/13 04:01:35;;;;;;;20.60;13.60;;;;;;;8.90;100.00;62913.84;4966765;29;20291;-77
2022/10/13 04:04:02;;;;;;;20.60;13.60;;;;;;;8.86;100.00;62912.25;4964484;28;20220;-77
2022/10/13 04:06:30;;;;;;;18.83;12.48;;;;;;;8.89;100.00;62915.34;4965730;28;20208;-78
2022/10/13 04:08:57;;;;;;;20.63;13.00;;;;;;;8.90;100.00;62921.47;4969026;28;20221;-76
2022/10/13 04:11:24;;;;;;;19.17;12.50;;;;;;;8.90;100.00;62915.88;4965883;29;20271;-78
2022/10/13 04:13:51;;;;;;;18.42;11.57;;;;;;;8.81;100.00;62906.56;4964832;28;20232;-77
2022/10/13 04:16:20;;;;;;;21.75;11.90;;;;;;;8.82;100.00;62908.13;4963266;29;20260;-78
2022/10/13 04:18:54;;;;;;;18.77;11.85;;;;;;;8.79;100.00;62901.97;4958871;29;20235;-78
2022/10/13 04:21:21;;;;;;;22.13;13.00;;;;;;;8.75;100.00;62903.41;4952988;29;20204;-78
2022/10/13 04:23:49;;;;;;;19.55;13.02;;;;;;;8.79;100.00;62907.56;4966172;28;20220;-78
2022/10/13 04:26:18;;;;;;;19.13;12.65;;;;;;;8.76;100.00;62901.94;4966349;29;20207;-77
2022/10/13 04:28:46;;;;;;;19.95;12.57;;;;;;;8.71;100.00;62896.25;4966927;28;20244;-77
2022/10/13 04:31:13;;;;;;;22.98;12.85;;;;;;;8.69;100.00;62894.16;4959621;29;20212;-77
2022/10/13 04:33:40;;;;;;;16.23;11.63;;;;;;;8.69;100.00;62896.72;4964009;28;20272;-77
2022/10/13 04:36:11;;;;;;;23.98;13.68;;;;;;;8.72;100.00;62902.88;4967506;29;20248;-77
2022/10/13 04:38:38;;;;;;;19.60;13.50;;;;;;;8.74;100.00;62899.84;4969303;29;20276;-77
2022/10/13 04:41:07;;;;;;;16.08;11.88;;;;;;;8.62;100.00;62886.94;4963828;29;21893;-77
2022/10/13 04:43:35;;;;;;;14.02;10.90;;;;;;;8.72;100.00;62902.88;4960093;29;20268;-77
2022/10/13 04:46:02;;;;;;;23.92;12.10;;;;;;;8.79;100.00;62904.50;4960705;29;20238;-77
2022/10/13 04:48:29;;;;;;;15.07;10.93;;;;;;;8.79;100.00;62901.97;4965433;29;20228;-77
2022/10/13 04:51:01;;;;;;;15.93;10.50;;;;;;;8.79;100.00;62905.03;4964682;29;20201;-78
2022/10/13 04:53:29;;;;;;;13.85;10.30;;;;;;;8.80;100.00;62903.00;4961657;29;20450;-76
2022/10/13 04:55:56;;;;;;;16.58;10.80;;;;;;;8.86;100.00;62914.28;4966833;29;20216;-79
2022/10/13 04:58:23;;;;;;;16.67;10.43;;;;;;;8.84;100.00;62907.66;4972202;28;20238;-77
2022/10/13 05:00:51;;;;;;;15.10;10.45;;;;;;;8.89;100.00;62914.84;4969749;28;20204;-80
2022/10/13 05:03:18;;;;;;;17.75;12.38;;;;;;;8.95;100.00;62923.59;4957563;28;20410;-79
2022/10/13 05:05:45;;;;;;;15.43;10.73;;;;;;;9.03;100.00;62926.75;4967087;29;20200;-77
2022/10/13 05:08:12;;;;;;;12.63;10.20;;;;;;;9.05;100.00;62936.97;4965063;28;20221;-77
2022/10/13 05:10:40;;;;;;;16.98;11.52;;;;;;;9.09;100.00;62935.50;4964134;29;20205;-78
2022/10/13 05:13:07;;;;;;;16.55;11.25;;;;;;;9.10;100.00;62931.97;4965685;28;20340;-77
2022/10/13 05:15:34;;;;;;;19.05;13.45;;;;;;;9.02;100.00;62923.19;4966593;29;20512;-78
2022/10/13 05:18:01;;;;;;;14.93;10.60;;;;;;;9.16;100.00;62940.72;4964491;28;20267;-77
2022/10/13 05:20:28;;;;;;;23.05;10.98;;;;;;;9.12;100.00;62941.16;4969125;29;20216;-78
2022/10/13 05:22:54;;;;;;;23.83;15.45;;;;;;;9.24;100.00;62954.06;4964868;29;20272;-77
2022/10/13 05:25:21;;;;;;;16.45;11.23;;;;;;;9.29;100.00;62956.19;4966158;29;20236;-77
2022/10/13 05:27:49;;;;;;;30.02;17.70;;;;;;;9.25;100.00;62949.50;4965442;28;20398;-77
2022/10/13 05:30:16;;;;;;;22.23;14.38;;;;;;;9.20;100.00;62946.88;4969154;29;20209;-78
2022/10/13 05:32:43;;;;;;;22.15;14.07;;;;;;;9.23;100.00;62947.94;4969383;29;20248;-78
2022/10/13 05:35:10;;;;;;;18.70;12.60;;;;;;;9.25;100.00;62954.56;4969602;29;20200;-77
2022/10/13 05:37:37;;;;;;;30.95;18.25;;;;;;;9.28;100.00;62952.63;4968212;28;20291;-77
2022/10/13 05:40:04;;;;;;;27.20;16.98;;;;;;;9.39;100.00;62968.56;4971044;29;20204;-77
2022/10/13 05:42:31;;;;;;;26.33;16.83;;;;;;;9.46;100.00;62975.78;4969330;29;20224;-78
2022/10/13 05:44:59;;;;;;;33.58;20.02;;;;;;;9.58;100.00;62988.19;4960975;29;20205;-76
2022/10/13 05:47:27;;;;;;;21.10;14.45;;;;;;;9.61;100.00;62989.25;4968986;29;20248;-77
2022/10/13 05:49:54;;;;;;;22.83;14.85;;;;;;;9.61;100.00;62991.31;4956300;29;20279;-77
2022/10/13 05:52:23;;;;;;;27.58;17.02;;;;;;;9.69;100.00;62997.53;4966170;28;20220;-76
2022/10/13 05:54:54;;;;;;;31.67;17.85;;;;;;;9.81;100.00;63009.44;4967021;29;20252;-77
2022/10/13 05:57:24;;;;;;;34.70;17.67;;;;;;;9.90;100.00;63019.28;4965450;29;20287;-77
2022/10/13 05:59:55;;;;;;;30.85;19.20;;;;;;;9.83;100.00;63017.13;4968080;29;20390;-77
2022/10/13 06:02:27;;;;;;;32.67;18.42;;;;;;;9.97;100.00;63031.59;4966947;29;20264;-76
2022/10/13 06:04:57;;;;;;;28.75;18.30;;;;;;;9.79;100.00;63009.91;4966875;29;20247;-76
2022/10/13 06:07:24;;;;;;;28.15;18.33;;;;;;;9.80;100.00;63006.38;4969934;28;20233;-80
2022/10/13 06:09:51;;;;;;;33.72;18.45;;;;;;;9.52;100.00;62982.00;4968384;29;20211;-76
2022/10/13 06:12:18;;;;;;;35.50;19.77;;;;;;;9.51;100.00;62978.94;4966599;29;20220;-76
2022/10/13 06:14:46;;;;;;;29.38;17.77;;;;;;;9.51;100.00;62976.38;4967204;29;20216;-76
2022/10/13 06:17:12;;;;;;;32.13;19.45;;;;;;;9.59;100.00;62984.16;4967673;28;20236;-76
2022/10/13 06:19:41;;;;;;;36.65;20.40;;;;;;;9.84;100.00;63015.59;4968298;29;20244;-76
2022/10/13 06:22:08;;;;;;;27.80;18.48;;;;;;;9.91;100.00;63022.84;4964518;28;20224;-76
2022/10/13 06:24:35;;;;;;;33.10;20.17;;;;;;;10.04;100.00;63033.22;4967427;29;20207;-77
2022/10/13 06:27:02;;;;;;;36.70;18.90;;;;;;;10.02;100.00;63031.69;4966389;28;20236;-77
2022/10/13 06:29:29;;;;;;;32.28;18.63;;;;;;;10.16;100.00;63048.72;4966940;28;20416;-77
2022/10/13 06:31:55;;;;;;;28.20;19.70;;;;;;;10.44;100.00;63075.16;4967449;28;20204;-77
2022/10/13 06:34:22;;;;;;;28.27;18.35;;;;;;;10.76;100.00;63107.25;4967783;29;20201;-77
2022/10/13 06:36:50;;;;;;;29.45;18.35;;;;;;;10.90;100.00;63121.72;4968466;28;20220;-77
2022/10/13 06:39:17;;;;;;;23.83;16.80;;;;;;;10.99;100.00;63131.06;4964216;29;20293;-77
2022/10/13 06:41:44;;;;;;;28.25;16.50;;;;;;;11.10;100.00;63139.88;4948873;29;20201;-76
2022/10/13 06:44:11;;;;;;;27.02;16.17;;;;;;;11.26;100.00;63156.47;4949697;29;20438;-77
2022/10/13 06:46:38;;;;;;;23.58;14.45;;;;;;;11.33;100.00;63166.25;4955005;29;20215;-76
2022/10/13 06:49:04;;;;;;;25.88;16.33;;;;;;;11.40;100.00;63174.03;4967107;29;20276;-77
2022/10/13 06:51:32;;;;;;;22.08;15.32;;;;;;;11.36;100.00;63169.88;4967909;29;20197;-76
2022/10/13 06:54:00;;;;;;;23.70;15.15;;;;;;;11.54;100.00;63191.06;4967016;28;20299;-77
2022/10/13 06:56:28;;;;;;;28.33;16.13;;;;;;;11.61;100.00;63192.72;4968013;29;20212;-77
2022/10/13 06:58:55;;;;;;;28.00;15.90;;;;;;;11.85;100.00;63214.53;4952292;28;20248;-77
2022/10/13 07:01:22;;;;;;;26.15;16.58;;;;;;;11.94;100.00;63228.97;4948190;29;20432;-77
2022/10/13 07:03:49;;;;;;;26.33;17.23;;;;;;;12.07;100.00;63242.94;4948330;29;20217;-77
2022/10/13 07:06:16;;;;;;;23.30;16.52;;;;;;;12.22;100.00;63263.59;4950303;29;20233;-78
2022/10/13 07:08:43;;;;;;;24.90;16.35;;;;;;;12.35;100.00;63277.09;4968392;28;20221;-76
2022/10/13 07:11:14;;;;;;;24.58;15.88;;;;;;;12.33;100.00;63269.91;4967591;29;20429;-77
2022/10/13 07:13:41;;;;;;;28.10;17.40;;;;;;;12.17;100.00;63253.31;4956812;29;20277;-77
2022/10/13 07:16:09;;;;;;;29.23;18.23;;;;;;;12.20;100.00;63255.91;4963398;29;20200;-77
2022/10/13 07:18:37;;;;;;;25.88;16.38;;;;;;;12.28;100.00;63264.19;4959873;28;20488;-76
2022/10/13 07:21:07;;;;;;;32.05;19.15;;;;;;;12.15;100.00;63245.63;4963652;29;20337;-76
2022/10/13 07:23:34;;;;;;;26.05;17.35;;;;;;;12.06;100.00;63241.91;4961541;29;20220;-75
2022/10/13 07:26:01;;;;;;;33.33;17.42;;;;;;;11.93;100.00;63225.88;4962530;28;20564;-76
2022/10/13 07:28:29;;;;;;;28.90;17.65;;;;;;;12.12;100.00;63245.56;4966507;29;20237;-76
2022/10/13 07:30:56;;;;;;;27.77;17.95;;;;;;;12.10;100.00;63248.09;4960965;29;20200;-76
2022/10/13 07:33:22;;;;;;;29.80;18.20;;;;;;;12.25;100.00;63266.19;4960783;28;20224;-77
2022/10/13 07:35:49;;;;;;;24.98;16.65;;;;;;;12.16;100.00;63249.72;4964009;28;20263;-77
2022/10/13 07:38:16;;;;;;;23.20;15.95;;;;;;;12.10;100.00;63242.97;4967324;28;20236;-77
2022/10/13 07:40:43;;;;;;;20.52;13.88;;;;;;;12.37;100.00;63276.09;4966489;28;20208;-78
2022/10/13 07:43:10;;;;;;;19.15;13.77;;;;;;;12.48;100.00;63287.47;4962550;28;20229;-77
2022/10/13 07:45:38;;;;;;;16.98;13.30;;;;;;;12.45;100.00;63282.34;4959615;29;20474;-79
2022/10/13 07:48:05;;;;;;;15.48;10.98;;;;;;;12.52;100.00;63289.06;4956389;29;20236;-76
2022/10/13 07:50:33;;;;;;;15.07;10.70;;;;;;;12.78;100.00;63319.13;4958698;29;20200;-77
2022/10/13 07:53:00;;;;;;;18.00;11.55;;;;;;;12.98;100.00;63339.34;4961143;28;20426;-77
2022/10/13 07:55:26;;;;;;;15.98;11.32;;;;;;;13.14;100.00;63353.41;4965279;29;20225;-77
2022/10/13 07:57:53;;;;;;;20.45;12.73;;;;;;;13.20;100.00;63356.56;4967800;28;20259;-77
2022/10/13 08:00:20;;;;;;;17.13;12.13;;;;;;;13.36;100.00;63378.78;4966633;29;20236;-78
2022/10/13 08:02:51;;;;;;;19.77;13.63;;;;;;;13.48;100.00;63391.22;4968232;28;20244;-78
2022/10/13 08:05:18;;;;;;;17.55;13.65;;;;;;;13.60;100.00;63400.59;4947263;29;20252;-77
2022/10/13 08:07:44;;;;;;;17.77;12.75;;;;;;;13.38;100.00;63377.78;4951683;29;20233;-78
2022/10/13 08:10:12;;;;;;;16.95;13.27;;;;;;;13.45;100.00;63390.16;4949583;29;20212;-77
2022/10/13 08:12:39;;;;;;;22.75;14.48;;;;;;;13.52;100.00;63392.31;4946950;29;20221;-78
2022/10/13 08:15:07;;;;;;;23.67;12.85;;;;;;;13.55;100.00;63397.97;4947306;29;20225;-77
2022/10/13 08:17:34;;;;;;;19.85;12.82;;;;;;;13.79;100.00;63422.88;4948900;29;20530;-77
2022/10/13 08:20:04;;;;;;;21.67;13.82;;;;;;;13.99;99.31;63443.13;4947664;29;20509;-78
2022/10/13 08:22:33;;;;;;;20.75;13.60;;;;;;;14.00;99.88;63441.59;4947450;29;20228;-77
2022/10/13 08:25:00;;;;;;;24.15;15.98;;;;;;;14.10;98.19;63452.50;4948903;29;20202;-77
2022/10/13 08:27:28;;;;;;;26.48;15.57;;;;;;;14.18;98.84;63460.28;4947103;28;20220;-78
2022/10/13 08:29:54;;;;;;;22.73;14.48;;;;;;;14.52;97.36;63490.50;4947248;29;20201;-78
2022/10/13 08:32:21;;;;;;;20.27;13.77;;;;;;;14.71;96.17;63515.34;4948998;29;20616;-77
2022/10/13 08:34:48;;;;;;;18.33;13.32;;;;;;;15.19;91.46;63567.78;4960649;29;20209;-77
2022/10/13 08:37:20;;;;;;;24.70;13.63;;;;;;;15.14;89.56;63562.59;4967546;28;20537;-78
2022/10/13 08:39:47;;;;;;;25.60;14.57;;;;;;;14.92;91.19;63539.72;4955930;29;20395;-78
2022/10/13 08:42:17;;;;;;;25.35;15.25;;;;;;;14.77;92.78;63524.16;4948086;29;20228;-77
2022/10/13 08:44:46;;;;;;;20.90;14.05;;;;;;;14.14;95.40;63459.22;4948328;29;20208;-77
2022/10/13 08:47:20;;;;;;;27.85;14.45;;;;;;;14.17;95.51;63459.25;4948731;29;20225;-77
2022/10/13 08:49:46;;;;;;;26.92;15.27;;;;;;;14.26;96.58;63469.13;4947392;29;20260;-78
2022/10/13 08:52:20;;;;;;;24.75;14.73;;;;;;;14.50;95.92;63491.50;4953114;28;20229;-77
2022/10/13 08:54:47;;;;;;;25.40;15.10;;;;;;;14.73;93.27;63514.88;4957654;29;20256;-77
2022/10/13 08:57:14;;;;;;;24.38;16.27;;;;;;;15.03;91.56;63548.59;4949005;29;20225;-77
2022/10/13 08:59:41;;;;;;;24.77;14.48;;;;;;;15.37;90.63;63589.06;4948016;29;20263;-77
2022/10/13 09:02:12;;;;;;;23.80;16.17;;;;;;;14.99;89.83;63544.97;4949333;28;20225;-77
2022/10/13 09:04:42;;;;;;;30.95;17.63;;;;;;;14.84;90.73;63531.94;4948533;29;20212;-78
2022/10/13 09:07:14;;;;;;;24.98;16.20;;;;;;;14.90;90.48;63538.19;4948493;29;20300;-77
2022/10/13 09:09:43;;;;;;;22.73;15.20;;;;;;;14.96;90.46;63541.34;4951671;29;20211;-76
2022/10/13 09:12:12;;;;;;;34.53;14.88;;;;;;;15.29;88.62;63572.53;4965277;28;20224;-77
2022/10/13 09:14:40;;;;;;;24.88;14.20;;;;;;;15.65;86.36;63607.41;4966918;29;20200;-76
2022/10/13 09:17:21;;;;;;;26.45;13.95;;;;;;;15.89;84.50;63640.06;4954756;29;20229;-77
2022/10/13 09:19:59;;;;;;;19.17;12.68;;;;;;;15.95;81.28;63644.25;4956937;29;20292;-79
2022/10/13 09:22:28;;;;;;;20.80;12.05;;;;;;;15.64;82.74;63616.63;4967980;28;20239;-77
2022/10/13 09:25:21;;;;;;;23.55;13.82;;;;;;;15.92;84.38;63638.56;4965763;29;20421;-77
2022/10/13 09:27:51;;;;;;;21.38;14.65;;;;;;;16.06;85.04;63655.16;4953198;28;20296;-77
2022/10/13 09:30:35;;;;;;;21.73;12.93;;;;;;;16.23;79.65;63670.28;4963655;29;20216;-78
2022/10/13 09:33:19;;;;;;;21.65;12.98;;;;;;;16.00;80.08;63651.47;4963590;28;20561;-78
2022/10/13 09:35:48;;;;;;;19.05;13.60;;;;;;;15.79;82.22;63627.59;4963720;29;20200;-79
2022/10/13 09:38:16;;;;;;;21.38;13.57;;;;;;;15.99;80.12;63650.97;4964498;28;20275;-77
2022/10/13 09:40:57;;;;;;;35.13;14.80;;;;;;;16.15;80.32;63664.53;4965422;29;20208;-78
2022/10/13 09:43:30;;;;;;;19.63;13.55;;;;;;;16.28;79.33;63680.59;4965543;28;20216;-77
2022/10/13 09:45:57;;;;;;;24.00;14.43;;;;;;;16.19;80.36;63673.81;4963160;29;20251;-78
2022/10/13 09:48:29;;;;;;;19.88;13.20;;;;;;;16.23;80.02;63672.84;4960145;29;20235;-76
2022/10/13 09:50:58;;;;;;;18.42;11.88;;;;;;;16.54;78.27;63705.09;4964864;29;20276;-79
2022/10/13 09:53:30;;;;;;;19.45;12.85;;;;;;;16.69;75.54;63720.19;4966294;28;20216;-77
2022/10/13 09:56:20;;;;;;;22.20;12.90;;;;;;;16.36;77.51;63686.34;4961200;29;20200;-77
2022/10/13 09:58:54;;;;;;;20.15;11.88;;;;;;;16.15;78.61;63664.53;4961727;29;20445;-77
2022/10/13 10:01:27;;;;;;;16.83;12.13;;;;;;;16.02;79.92;63654.09;4967769;29;20534;-77
2022/10/13 10:03:55;;;;;;;14.50;10.77;;;;;;;15.71;82.41;63624.44;4960656;29;20279;-77
2022/10/13 10:06:23;;;;;;;16.40;10.65;;;;;;;15.88;83.85;63636.44;4962166;29;20204;-78
2022/10/13 10:08:56;;;;;;;16.63;11.13;;;;;;;16.07;82.98;63659.28;4965401;28;20457;-81
2022/10/13 10:11:31;;;;;;;19.63;10.88;;;;;;;16.31;81.48;63686.28;4954959;29;20232;-80
2022/10/13 10:14:04;;;;;;;15.80;11.18;;;;;;;16.56;77.32;63712.34;4967701;29;20255;-79
2022/10/13 10:16:42;;;;;;;20.20;11.02;;;;;;;16.75;75.80;63729.53;4962525;29;20212;-80
2022/10/13 10:19:20;;;;;;;14.75;9.27;;;;;;;16.96;74.53;63751.38;4963425;29;20236;-78
2022/10/13 10:21:55;;;;;;;13.27;9.05;;;;;;;17.33;73.24;63786.78;4958547;29;20206;-77
2022/10/13 10:24:32;;;;;;;15.43;10.00;;;;;;;17.65;72.54;63827.34;4961264;29;20435;-80
2022/10/13 10:27:06;;;;;;;12.80;10.18;;;;;;;17.72;69.84;63826.91;4973616;29;20200;-79
2022/10/13 10:29:51;;;;;;;16.05;10.48;;;;;;;17.71;71.81;63831.00;4973510;29;20200;-79
2022/10/13 10:32:28;;;;;;;14.57;8.90;;;;;;;18.23;71.43;63885.19;4975557;28;20227;-80
2022/10/13 10:35:02;;;;;;;14.32;9.23;;;;;;;18.52;68.09;63910.25;4970613;29;20446;-77
2022/10/13 10:37:56;;;;;;;13.45;10.45;;;;;;;18.78;65.26;63936.84;4966945;29;20220;-81
2022/10/13 10:40:35;;;;;;;11.50;10.02;;;;;;;18.85;63.68;63944.13;4964087;29;20508;-77
2022/10/13 10:43:26;;;;;;;12.65;8.25;;;;;;;18.74;62.22;63935.25;4954524;29;20220;-79
2022/10/13 10:45:57;;;;;;;10.32;8.05;;;;;;;18.63;63.44;63921.19;4962487;29;20208;-81
2022/10/13 10:48:30;;;;;;;16.27;9.60;;;;;;;18.40;61.54;63900.34;4973728;29;20234;-79
2022/10/13 10:51:00;;;;;;;12.82;8.57;;;;;;;18.50;61.67;63907.66;4972459;29;20271;-78
2022/10/13 10:53:36;;;;;;;16.77;9.60;;;;;;;18.82;61.46;63941.00;4973601;28;20286;-78
2022/10/13 10:56:15;;;;;;;12.15;8.68;;;;;;;19.21;59.73;63981.66;4968306;29;20186;-77
2022/10/13 10:58:53;;;;;;;12.35;7.68;;;;;;;19.39;57.02;64006.16;4968803;28;20521;-77
2022/10/13 11:01:31;;;;;;;10.43;8.45;;;;;;;19.34;57.99;64000.41;4969151;29;20188;-79
2022/10/13 11:04:13;;;;;;;16.83;8.75;;;;;;;19.31;56.37;63997.78;4969026;28;20223;-76
2022/10/13 11:06:40;;;;;;;10.98;8.32;;;;;;;19.32;56.01;63995.75;4968754;29;20204;-76
2022/10/13 11:09:07;;;;;;;10.77;8.40;;;;;;;19.07;57.18;63969.66;4953872;29;20240;-77
2022/10/13 11:11:37;;;;;;;12.38;8.25;;;;;;;19.42;57.21;64003.56;4968498;29;20231;-78
2022/10/13 11:14:31;;;;;;;14.27;8.43;;;;;;;18.91;58.19;63953.50;4964328;29;20525;-78
2022/10/13 11:17:20;;;;;;;12.43;8.23;;;;;;;18.56;60.57;63916.47;4961633;28;20204;-78
2022/10/13 11:19:48;;;;;;;11.02;9.18;;;;;;;18.90;59.26;63949.88;4966078;29;20234;-78
2022/10/13 11:22:20;;;;;;;10.70;8.68;;;;;;;19.17;58.42;63980.59;4968188;29;20228;-78
2022/10/13 11:24:55;;;;;;;12.02;8.85;;;;;;;19.65;56.22;64029.63;4970179;29;20197;-77
2022/10/13 11:27:37;;;;;;;9.57;8.20;;;;;;;20.15;54.02;64079.72;4973990;28;20223;-78
2022/10/13 11:30:26;;;;;;;9.75;8.18;;;;;;;20.23;53.51;64090.69;4959923;29;20209;-78
2022/10/13 11:32:56;;;;;;;11.57;7.95;;;;;;;20.32;53.64;64096.97;4963715;28;20287;-78
2022/10/13 11:35:26;;;;;;;14.27;7.57;;;;;;;20.29;51.51;64099.00;4971231;28;20244;-81